EmailTwitter


Surface observations / United Kingdom / EGUB (03658)

Regions: Quebec | Canada | USA | Europe | France | UK | Elsewhere
Station
Display
Info & Location for EGUB (03658) | Help decoding METAR

Weather Conditions observed on 2020/05/27 at 14:50 UTC at BENSON RAF, UK (EGUB)

Sky conditions: few clouds.

Temperature: 23.0 Celsius.

Dewpoint: 11.0 Celsius.

Relative Humidity: 47%

Humidex: 25.

Winds: Northeast at 11 km/h or 6 knots.

Mean Sea level Pressure: 103.40 kilopascals.

Horizontal visibility: 6.21 statute miles or 9.94 kilometers.

Coded METAR:

EGUB 271450Z 03006KT 9999 FEW048 23/11 Q1034 NOSIG RMK BLU BLU=